Time;durP1;ratioP1;P1;durP2;ratioP2;P2;SDS_P1;SDS_P2;PMS_P1;PMS_P2;Temp;Humidity;BMP_temperature;BMP_pressure;BME280_temperature;BME280_humidity;BME280_pressure;Samples;Min_cycle;Max_cycle;Signal;HPM_P1;HPM_P2
2023/02/11 00:00:42;;;;;;;28.63;16.02;;;;;;;0.18;100.00;100229.25;4194356;28;20091;-73
2023/02/11 00:02:43;;;;;;;30.30;15.18;;;;;;;0.22;100.00;100224.06;4191710;28;20040;-74
2023/02/11 00:04:43;;;;;;;29.50;14.68;;;;;;;0.30;100.00;100222.72;4193736;28;20047;-74
2023/02/11 00:06:43;;;;;;;29.00;15.32;;;;;;;0.37;100.00;100217.84;4193996;28;20055;-74
2023/02/11 00:08:44;;;;;;;29.45;14.77;;;;;;;0.40;100.00;100212.69;4193637;28;20053;-73
2023/02/11 00:10:45;;;;;;;35.95;16.92;;;;;;;0.44;100.00;100212.97;4192233;28;20067;-74
2023/02/11 00:12:45;;;;;;;32.78;15.85;;;;;;;0.57;100.00;100212.44;4191891;28;20028;-74
2023/02/11 00:14:46;;;;;;;28.80;15.57;;;;;;;0.65;100.00;100200.19;4193939;28;20101;-74
2023/02/11 00:16:46;;;;;;;32.28;15.80;;;;;;;0.78;100.00;100192.31;4192798;28;20056;-74
2023/02/11 00:18:47;;;;;;;27.52;14.88;;;;;;;0.76;100.00;100188.25;4192259;28;20045;-74
2023/02/11 00:20:48;;;;;;;29.33;15.25;;;;;;;0.87;100.00;100189.88;4193276;28;20105;-74
2023/02/11 00:22:48;;;;;;;29.48;16.27;;;;;;;0.87;100.00;100164.53;4195783;28;20045;-73
2023/02/11 00:24:48;;;;;;;30.48;15.13;;;;;;;0.88;100.00;100169.69;4192568;28;20119;-74
2023/02/11 00:26:48;;;;;;;26.35;15.45;;;;;;;0.81;100.00;100180.06;4193639;28;20045;-74
2023/02/11 00:28:50;;;;;;;30.67;15.95;;;;;;;0.73;100.00;100169.69;4192739;28;20441;-74
2023/02/11 00:30:55;;;;;;;32.00;15.63;;;;;;;0.72;100.00;100163.44;4193205;28;20401;-74
2023/02/11 00:32:55;;;;;;;33.92;15.52;;;;;;;0.69;100.00;100163.97;4191939;28;20043;-74
2023/02/11 00:34:56;;;;;;;31.73;15.60;;;;;;;0.73;100.00;100151.44;4193003;28;20040;-74
2023/02/11 00:36:56;;;;;;;30.58;15.93;;;;;;;0.80;100.00;100160.16;4192954;28;20070;-74
2023/02/11 00:38:57;;;;;;;35.10;15.93;;;;;;;0.79;100.00;100144.91;4192756;28;20059;-74
2023/02/11 00:40:58;;;;;;;27.45;13.98;;;;;;;0.76;100.00;100140.00;4193041;28;20068;-74
2023/02/11 00:42:58;;;;;;;29.48;14.93;;;;;;;0.73;100.00;100146.00;4192438;28;20048;-74
2023/02/11 00:44:58;;;;;;;30.15;15.45;;;;;;;0.71;100.00;100125.56;4192999;28;20090;-74
2023/02/11 00:46:59;;;;;;;32.55;16.17;;;;;;;0.64;100.00;100120.38;4193112;28;20159;-74
2023/02/11 00:48:59;;;;;;;30.17;15.27;;;;;;;0.67;100.00;100110.88;4192507;28;20362;-73
2023/02/11 00:51:00;;;;;;;25.27;13.93;;;;;;;0.65;100.00;100100.22;4193148;28;20358;-74
2023/02/11 00:53:00;;;;;;;30.35;14.38;;;;;;;0.61;100.00;100093.69;4191837;28;20064;-75
2023/02/11 00:55:00;;;;;;;26.90;13.60;;;;;;;0.64;100.00;100095.88;4191940;28;20469;-74
2023/02/11 00:57:01;;;;;;;29.95;14.23;;;;;;;0.74;100.00;100089.59;4193323;28;20056;-74
2023/02/11 00:59:02;;;;;;;31.08;15.25;;;;;;;0.80;100.00;100089.31;4196922;28;20054;-74
2023/02/11 01:01:02;;;;;;;29.38;15.00;;;;;;;0.81;100.00;100079.22;4195565;28;20040;-74
2023/02/11 01:03:03;;;;;;;28.27;13.80;;;;;;;0.86;100.00;100089.31;4192545;28;20055;-74
2023/02/11 01:05:04;;;;;;;29.95;15.35;;;;;;;0.94;100.00;100086.84;4192740;28;20033;-74
2023/02/11 01:07:04;;;;;;;32.30;15.73;;;;;;;1.01;100.00;100075.69;4191746;28;20040;-74
2023/02/11 01:09:04;;;;;;;25.08;14.35;;;;;;;1.09;100.00;100070.47;4194826;28;20396;-74
2023/02/11 01:11:10;;;;;;;31.88;15.55;;;;;;;1.18;100.00;100070.72;4192439;28;20049;-73
2023/02/11 01:13:11;;;;;;;24.70;14.35;;;;;;;1.23;100.00;100088.97;4190954;28;20049;-73
2023/02/11 01:15:15;;;;;;;28.23;14.35;;;;;;;1.27;100.00;100101.78;4193287;28;20044;-74
2023/02/11 01:17:15;;;;;;;31.20;16.27;;;;;;;1.33;100.00;100111.59;4191300;28;20076;-74
2023/02/11 01:19:15;;;;;;;28.35;14.95;;;;;;;1.44;100.00;100115.09;4192510;28;20090;-73
2023/02/11 01:21:16;;;;;;;27.17;14.85;;;;;;;1.47;100.00;100117.25;4194279;28;20043;-74
2023/02/11 01:23:16;;;;;;;31.67;14.65;;;;;;;1.60;100.00;100116.66;4190466;28;20083;-74
2023/02/11 01:25:16;;;;;;;30.02;15.13;;;;;;;1.60;100.00;100111.22;4191961;28;20064;-74
2023/02/11 01:27:17;;;;;;;32.60;14.77;;;;;;;1.56;100.00;100115.56;4191094;28;20045;-73
2023/02/11 01:29:17;;;;;;;29.13;14.52;;;;;;;1.46;100.00;100112.06;4192194;28;20372;-73
2023/02/11 01:31:17;;;;;;;32.58;15.82;;;;;;;1.42;100.00;100106.38;4192014;28;20120;-74
2023/02/11 01:33:18;;;;;;;29.08;14.93;;;;;;;1.34;100.00;100113.22;4191801;28;20519;-74
2023/02/11 01:35:18;;;;;;;29.85;15.55;;;;;;;1.36;100.00;100118.38;4192461;28;20238;-74
2023/02/11 01:37:19;;;;;;;35.60;15.88;;;;;;;1.38;100.00;100094.38;4191571;28;20152;-74
2023/02/11 01:39:19;;;;;;;27.02;15.18;;;;;;;1.49;100.00;100098.72;4192354;28;20102;-74
2023/02/11 01:41:19;;;;;;;27.00;14.48;;;;;;;1.52;100.00;100114.50;4191999;28;20122;-74
2023/02/11 01:43:21;;;;;;;32.42;15.43;;;;;;;1.46;100.00;100098.44;4191747;28;20754;-74
2023/02/11 01:45:43;;;;;;;25.25;14.48;;;;;;;1.49;100.00;100108.78;4193664;28;20124;-74
2023/02/11 01:47:43;;;;;;;32.72;14.85;;;;;;;1.43;100.00;100099.00;4193171;28;20063;-74
2023/02/11 01:49:48;;;;;;;28.15;14.52;;;;;;;1.41;100.00;100096.56;4191784;28;20388;-74
2023/02/11 01:52:00;;;;;;;27.50;15.48;;;;;;;1.38;100.00;100111.53;4191568;28;20038;-74
2023/02/11 01:59:02;;;;;;;30.13;13.98;;;;;;;1.42;100.00;100114.56;4191948;28;20017;-74
2023/02/11 02:01:05;;;;;;;27.05;14.55;;;;;;;1.45;100.00;100099.53;4191803;28;20048;-74
2023/02/11 02:03:13;;;;;;;32.80;16.42;;;;;;;1.65;100.00;100102.16;4191642;28;20033;-74
2023/02/11 02:05:34;;;;;;;30.95;16.23;;;;;;;1.68;100.00;100107.91;4189967;28;20071;-74
2023/02/11 02:07:52;;;;;;;28.00;15.35;;;;;;;1.74;100.00;100094.22;4191516;28;20455;-74
2023/02/11 02:10:02;;;;;;;31.35;15.38;;;;;;;1.72;100.00;100090.97;4192372;28;20057;-74
2023/02/11 02:12:02;;;;;;;33.03;15.50;;;;;;;1.75;100.00;100095.88;4191458;28;20036;-74
2023/02/11 02:14:03;;;;;;;31.80;15.85;;;;;;;1.65;100.00;100102.16;4191686;28;20040;-74
2023/02/11 02:16:15;;;;;;;30.80;14.93;;;;;;;1.57;100.00;100091.84;4192427;28;20032;-74
2023/02/11 02:18:53;;;;;;;30.75;15.98;;;;;;;1.55;100.00;100085.84;4192122;28;20173;-74
2023/02/11 02:21:08;;;;;;;35.15;14.88;;;;;;;1.58;100.00;100088.03;4191904;28;20041;-74
2023/02/11 02:23:39;;;;;;;30.33;14.95;;;;;;;1.56;100.00;100073.84;4189121;28;20135;-74
2023/02/11 02:26:04;;;;;;;29.98;15.25;;;;;;;1.51;100.00;100063.78;4192546;28;20299;-74
2023/02/11 02:28:16;;;;;;;31.45;16.15;;;;;;;1.51;100.00;100063.78;4191928;28;20071;-74
2023/02/11 02:30:40;;;;;;;37.53;16.40;;;;;;;1.51;100.00;100057.50;4192804;28;20037;-74
2023/02/11 02:32:59;;;;;;;32.58;16.02;;;;;;;1.72;100.00;100056.28;4190494;28;20052;-74
2023/02/11 02:35:22;;;;;;;32.20;15.68;;;;;;;1.69;100.00;100041.31;4190765;28;20053;-73
2023/02/11 02:37:46;;;;;;;34.50;16.83;;;;;;;1.65;100.00;100037.50;4195591;28;20091;-74
2023/02/11 02:39:49;;;;;;;32.65;15.82;;;;;;;1.68;100.00;100017.03;4190397;28;20272;-74
2023/02/11 02:41:51;;;;;;;33.78;17.02;;;;;;;1.69;100.00;100005.03;4190307;28;20136;-75
2023/02/11 02:43:52;;;;;;;34.38;17.35;;;;;;;1.68;100.00;100004.22;4190066;28;20284;-75
2023/02/11 02:45:53;;;;;;;33.72;16.40;;;;;;;1.71;100.00;100000.09;4190968;28;20146;-74
2023/02/11 02:47:54;;;;;;;35.83;16.73;;;;;;;1.72;100.00;99976.34;4191177;28;20066;-74
2023/02/11 02:49:54;;;;;;;31.98;16.13;;;;;;;1.68;100.00;99987.84;4190569;28;20118;-74
2023/02/11 02:52:18;;;;;;;32.35;16.55;;;;;;;1.79;100.00;99996.75;4189650;28;20094;-74
2023/02/11 02:54:44;;;;;;;32.92;16.08;;;;;;;1.82;100.00;99993.50;4189977;28;20044;-74
2023/02/11 02:57:14;;;;;;;35.78;16.83;;;;;;;1.79;100.00;99996.75;4187976;28;20112;-74
2023/02/11 02:59:45;;;;;;;34.97;15.73;;;;;;;1.78;100.00;99980.69;4193128;28;20075;-74
2023/02/11 03:01:55;;;;;;;36.22;16.67;;;;;;;1.82;100.00;99968.94;4190344;28;20044;-74
2023/02/11 03:04:11;;;;;;;31.05;15.95;;;;;;;1.90;100.00;99981.13;4190459;28;20392;-74
2023/02/11 03:06:27;;;;;;;35.03;17.05;;;;;;;1.94;100.00;99982.19;4192547;28;20049;-74
2023/02/11 03:08:58;;;;;;;32.85;15.20;;;;;;;1.98;100.00;99997.72;4190924;28;20076;-75
2023/02/11 03:11:02;;;;;;;35.92;17.75;;;;;;;2.10;100.00;100016.47;4190675;28;20444;-74
2023/02/11 03:13:04;;;;;;;35.03;16.77;;;;;;;2.19;100.00;100005.75;4190709;28;20053;-74
2023/02/11 03:15:06;;;;;;;29.08;16.20;;;;;;;2.16;100.00;100001.69;4190177;28;20044;-74
2023/02/11 03:17:08;;;;;;;33.65;16.92;;;;;;;2.12;100.00;99992.44;4190355;28;20048;-74
2023/02/11 03:19:27;;;;;;;32.92;16.80;;;;;;;2.11;100.00;99999.00;4189972;28;20040;-74
2023/02/11 03:21:31;;;;;;;34.97;17.10;;;;;;;2.01;100.00;99993.63;4190916;28;20051;-74
2023/02/11 03:23:46;;;;;;;35.15;17.40;;;;;;;1.97;100.00;99998.81;4189623;28;20135;-74
2023/02/11 03:26:00;;;;;;;35.88;17.10;;;;;;;1.95;100.00;99981.09;4190203;28;20396;-74
2023/02/11 03:28:30;;;;;;;35.72;16.42;;;;;;;2.04;100.00;99978.56;4190666;28;20508;-74
2023/02/11 03:30:39;;;;;;;37.55;16.92;;;;;;;1.96;100.00;99969.88;4191664;28;20106;-74
2023/02/11 03:33:11;;;;;;;36.85;17.73;;;;;;;1.96;100.00;99958.97;4192382;28;20121;-75
2023/02/11 03:35:20;;;;;;;33.00;16.80;;;;;;;2.02;100.00;99948.84;4192078;28;20499;-74
2023/02/11 03:37:22;;;;;;;36.78;17.45;;;;;;;2.09;100.00;99960.25;4196907;28;20444;-74
2023/02/11 03:39:28;;;;;;;36.92;18.73;;;;;;;2.07;100.00;99958.88;4190511;28;20162;-74
2023/02/11 03:41:30;;;;;;;38.38;17.35;;;;;;;2.01;100.00;99952.66;4190256;28;20037;-74
2023/02/11 03:43:39;;;;;;;35.30;17.25;;;;;;;1.96;100.00;99963.63;4189744;28;20033;-74
2023/02/11 03:45:40;;;;;;;34.05;17.65;;;;;;;1.95;100.00;99953.81;4187634;28;20775;-74
2023/02/11 03:47:45;;;;;;;36.58;17.42;;;;;;;2.05;100.00;99959.19;4187395;28;20812;-74
2023/02/11 03:49:48;;;;;;;30.80;16.85;;;;;;;2.04;100.00;99952.09;4188487;28;20044;-74
2023/02/11 03:51:51;;;;;;;33.38;17.67;;;;;;;2.02;100.00;99948.03;4187574;28;20911;-74
2023/02/11 03:53:55;;;;;;;37.35;17.65;;;;;;;2.06;100.00;99944.41;4184516;28;20060;-74
2023/02/11 03:56:01;;;;;;;33.40;17.10;;;;;;;2.03;100.00;99939.53;4183672;28;20032;-74
2023/02/11 03:58:02;;;;;;;33.63;17.08;;;;;;;2.06;100.00;99940.88;4182460;28;20036;-74
2023/02/11 04:00:03;;;;;;;32.80;16.63;;;;;;;2.06;100.00;99935.41;4191778;28;20020;-74
2023/02/11 04:02:04;;;;;;;40.88;18.48;;;;;;;2.07;100.00;99953.41;4188334;28;20032;-74
2023/02/11 04:04:05;;;;;;;32.70;17.30;;;;;;;2.13;100.00;99950.38;4189610;28;20079;-74
2023/02/11 04:06:06;;;;;;;41.17;18.98;;;;;;;2.10;100.00;99961.88;4193457;28;20469;-74
2023/02/11 04:08:06;;;;;;;35.17;17.75;;;;;;;2.04;100.00;99963.00;4186197;28;20031;-74
2023/02/11 04:10:07;;;;;;;33.15;17.40;;;;;;;2.08;100.00;99971.47;4189202;28;20036;-74
2023/02/11 04:12:08;;;;;;;37.72;18.13;;;;;;;2.08;100.00;99969.53;4183104;28;20036;-74
2023/02/11 04:14:08;;;;;;;38.03;18.58;;;;;;;2.01;100.00;99960.84;4180024;28;20029;-74
2023/02/11 04:16:08;;;;;;;33.20;16.10;;;;;;;2.01;100.00;99962.78;4188162;28;20495;-74
2023/02/11 04:18:09;;;;;;;34.33;16.10;;;;;;;1.99;100.00;99957.59;4182556;28;20078;-74
2023/02/11 04:20:10;;;;;;;34.63;16.75;;;;;;;2.02;100.00;99961.69;4192959;28;20575;-74
2023/02/11 04:22:10;;;;;;;36.95;16.92;;;;;;;1.97;100.00;99948.88;4189731;28;20016;-74
2023/02/11 04:24:11;;;;;;;33.90;17.90;;;;;;;1.94;100.00;99953.00;4180033;28;20035;-74
2023/02/11 04:26:11;;;;;;;35.72;17.92;;;;;;;1.88;100.00;99939.66;4182994;28;20034;-74
2023/02/11 04:28:11;;;;;;;34.95;17.55;;;;;;;1.86;100.00;99928.22;4194549;28;20029;-74
2023/02/11 04:30:12;;;;;;;37.15;17.33;;;;;;;1.84;100.00;99933.16;4194400;28;20041;-74
2023/02/11 04:32:12;;;;;;;34.17;17.77;;;;;;;1.79;100.00;99927.72;4192091;28;20033;-74
2023/02/11 04:34:13;;;;;;;32.10;17.17;;;;;;;1.83;100.00;99939.72;4193828;28;20041;-74
2023/02/11 04:36:13;;;;;;;33.03;18.08;;;;;;;1.90;100.00;99937.44;4193812;28;20036;-74
2023/02/11 04:38:13;;;;;;;31.98;16.25;;;;;;;1.90;100.00;99932.84;4196194;28;20016;-74
2023/02/11 04:40:14;;;;;;;34.20;16.52;;;;;;;1.88;100.00;99947.84;4195596;28;20016;-74
2023/02/11 04:42:14;;;;;;;31.90;16.23;;;;;;;1.88;100.00;99953.31;4193602;28;20039;-74
2023/02/11 04:44:15;;;;;;;34.55;16.30;;;;;;;1.87;100.00;99952.50;4192902;28;20097;-74
2023/02/11 04:46:15;;;;;;;31.90;16.95;;;;;;;1.92;100.00;99949.75;4191270;28;20047;-74
2023/02/11 04:48:15;;;;;;;28.67;16.25;;;;;;;1.92;100.00;99951.66;4194122;28;20024;-74
2023/02/11 04:50:16;;;;;;;30.52;15.82;;;;;;;1.95;100.00;99953.81;4191781;28;20028;-74
2023/02/11 04:52:16;;;;;;;33.97;16.90;;;;;;;1.97;100.00;99965.25;4191180;28;20345;-74
2023/02/11 04:54:17;;;;;;;31.83;16.52;;;;;;;2.02;100.00;99973.41;4190888;28;20032;-74
2023/02/11 04:56:17;;;;;;;33.97;18.15;;;;;;;2.04;100.00;99973.94;4191010;28;20443;-74
2023/02/11 04:58:18;;;;;;;34.35;16.92;;;;;;;2.02;100.00;99976.13;4195983;28;20456;-75
2023/02/11 05:00:19;;;;;;;32.92;15.98;;;;;;;2.00;100.00;99966.63;4192160;28;20024;-74
2023/02/11 05:02:19;;;;;;;34.63;16.85;;;;;;;2.00;100.00;99959.25;4196026;28;20426;-74
2023/02/11 05:04:20;;;;;;;28.65;15.85;;;;;;;1.99;100.00;99960.34;4195677;28;20399;-74
2023/02/11 05:06:20;;;;;;;31.95;17.08;;;;;;;1.97;100.00;99971.50;4193855;28;27143;-74
2023/02/11 05:08:21;;;;;;;36.53;17.73;;;;;;;2.02;100.00;99969.88;4197179;28;20056;-74
2023/02/11 05:10:21;;;;;;;33.75;18.20;;;;;;;2.15;100.00;99971.91;4193018;28;20506;-74
2023/02/11 05:12:21;;;;;;;36.10;17.27;;;;;;;2.15;100.00;99975.50;4189918;28;20088;-74
2023/02/11 05:14:22;;;;;;;36.15;17.92;;;;;;;2.21;100.00;99978.97;4191331;28;20037;-74
2023/02/11 05:16:22;;;;;;;36.45;16.95;;;;;;;2.20;100.00;99983.63;4192651;28;20346;-74
2023/02/11 05:18:23;;;;;;;32.22;17.25;;;;;;;2.21;100.00;100001.63;4191550;28;20071;-74
2023/02/11 05:20:23;;;;;;;34.00;16.25;;;;;;;2.17;100.00;99997.03;4194453;28;20048;-74
2023/02/11 05:22:24;;;;;;;31.48;16.20;;;;;;;2.11;100.00;99992.72;4191846;28;20092;-74
2023/02/11 05:24:24;;;;;;;34.45;18.35;;;;;;;2.04;100.00;99987.56;4191764;28;20072;-75
2023/02/11 05:26:25;;;;;;;33.72;16.67;;;;;;;2.06;100.00;99981.81;4192331;28;20072;-74
2023/02/11 05:28:25;;;;;;;33.97;16.52;;;;;;;2.02;100.00;99980.78;4192457;28;20037;-74
2023/02/11 05:30:26;;;;;;;29.25;15.52;;;;;;;2.01;100.00;99992.81;4192069;28;20951;-74
2023/02/11 05:32:27;;;;;;;35.38;16.92;;;;;;;2.00;100.00;100002.91;4192058;28;20091;-74
2023/02/11 05:34:27;;;;;;;31.90;16.92;;;;;;;1.98;100.00;100005.09;4191356;28;20044;-74
2023/02/11 05:36:27;;;;;;;32.63;17.23;;;;;;;2.01;100.00;99998.25;4192414;28;20371;-74
2023/02/11 05:38:28;;;;;;;33.97;18.20;;;;;;;2.02;100.00;99986.25;4192340;28;20388;-74
2023/02/11 05:40:28;;;;;;;34.50;16.33;;;;;;;2.00;100.00;99989.25;4191868;28;20448;-75
2023/02/11 05:42:29;;;;;;;40.33;18.42;;;;;;;2.00;100.00;99985.72;4195373;28;20032;-74
2023/02/11 05:44:29;;;;;;;31.25;16.63;;;;;;;1.97;100.00;99979.72;4191763;28;20048;-74
2023/02/11 05:46:29;;;;;;;34.90;16.98;;;;;;;1.97;100.00;99981.63;4191299;28;20136;-74
2023/02/11 05:48:30;;;;;;;32.50;17.15;;;;;;;1.98;100.00;99980.53;4191626;28;20068;-74
2023/02/11 05:50:30;;;;;;;35.30;17.83;;;;;;;2.04;100.00;100000.41;4192269;28;20445;-74
2023/02/11 05:52:31;;;;;;;30.80;16.48;;;;;;;2.20;100.00;99997.28;4191128;28;20072;-74
2023/02/11 05:54:31;;;;;;;34.10;17.45;;;;;;;2.22;100.00;99991.53;4191214;28;20040;-74
2023/02/11 05:56:31;;;;;;;34.92;18.48;;;;;;;2.21;100.00;99985.25;4194969;28;20048;-74
2023/02/11 05:58:32;;;;;;;37.13;16.70;;;;;;;2.20;100.00;99988.28;4191452;28;20062;-74
2023/02/11 06:00:32;;;;;;;32.00;16.90;;;;;;;2.23;100.00;99988.53;4192085;28;20113;-74
2023/02/11 06:02:33;;;;;;;29.52;16.90;;;;;;;2.20;100.00;99988.28;4191319;28;20838;-74
2023/02/11 06:04:34;;;;;;;32.28;16.85;;;;;;;2.22;100.00;99975.97;4191743;28;20120;-74
2023/02/11 06:06:35;;;;;;;34.55;17.98;;;;;;;2.20;100.00;99974.63;4191623;28;20052;-74
2023/02/11 06:08:35;;;;;;;34.00;17.85;;;;;;;2.19;100.00;99970.25;4191522;28;20063;-74
2023/02/11 06:10:36;;;;;;;48.00;17.10;;;;;;;2.17;100.00;99962.38;4192047;28;20051;-74
2023/02/11 06:12:36;;;;;;;33.10;16.52;;;;;;;2.20;100.00;99975.44;4191909;28;20576;-74
2023/02/11 06:14:37;;;;;;;32.22;17.27;;;;;;;2.25;100.00;99978.13;4191086;28;20097;-74
2023/02/11 06:16:37;;;;;;;36.15;17.48;;;;;;;2.19;100.00;99970.25;4195911;28;20040;-74
2023/02/11 06:18:38;;;;;;;31.52;17.45;;;;;;;2.23;100.00;99974.88;4191421;28;20365;-74
2023/02/11 06:20:40;;;;;;;30.85;17.17;;;;;;;2.22;100.00;99975.13;4191904;28;20229;-75
2023/02/11 06:22:40;;;;;;;31.52;16.55;;;;;;;2.18;100.00;99983.09;4192313;28;20040;-74
2023/02/11 06:24:41;;;;;;;32.25;16.67;;;;;;;2.28;100.00;99984.94;4191765;28;20043;-75
2023/02/11 06:26:41;;;;;;;33.10;17.20;;;;;;;2.36;100.00;99995.22;4191297;28;20045;-74
2023/02/11 06:28:41;;;;;;;35.45;17.15;;;;;;;2.36;100.00;99988.97;4192034;28;20035;-74
2023/02/11 06:30:42;;;;;;;31.23;17.13;;;;;;;2.31;100.00;99989.00;4193451;28;20046;-74
2023/02/11 06:32:42;;;;;;;33.15;17.02;;;;;;;2.26;100.00;99989.88;4190589;28;20368;-75
2023/02/11 06:34:42;;;;;;;32.38;17.27;;;;;;;2.26;100.00;99992.59;4191054;28;20238;-74
2023/02/11 06:36:44;;;;;;;32.97;17.45;;;;;;;2.23;100.00;99988.53;4192829;28;20140;-74
2023/02/11 06:38:45;;;;;;;32.83;16.67;;;;;;;2.19;100.00;99992.09;4191651;28;20132;-74
2023/02/11 06:40:48;;;;;;;36.25;18.25;;;;;;;2.24;100.00;99990.16;4195219;28;20067;-75
2023/02/11 06:42:48;;;;;;;30.85;18.52;;;;;;;2.21;100.00;99992.63;4189463;28;20442;-74
2023/02/11 06:44:49;;;;;;;33.42;17.50;;;;;;;2.29;100.00;99996.66;4191278;28;20076;-75
2023/02/11 06:46:49;;;;;;;31.48;16.58;;;;;;;2.26;100.00;99995.34;4190126;28;20178;-74
2023/02/11 06:48:49;;;;;;;36.10;17.75;;;;;;;2.29;100.00;99994.75;4190313;28;20518;-75
2023/02/11 06:50:50;;;;;;;33.53;17.58;;;;;;;2.29;100.00;100002.94;4191109;28;20120;-74
2023/02/11 06:52:50;;;;;;;33.97;18.50;;;;;;;2.25;100.00;99991.78;4190358;28;20040;-74
2023/02/11 06:54:50;;;;;;;33.88;17.60;;;;;;;2.28;100.00;99995.03;4190948;28;20353;-74
2023/02/11 06:56:51;;;;;;;36.10;18.70;;;;;;;2.28;100.00;99998.59;4190701;28;20044;-74
2023/02/11 06:58:55;;;;;;;33.60;19.65;;;;;;;2.32;100.00;100001.53;4192894;28;20032;-75
2023/02/11 07:00:55;;;;;;;36.22;20.67;;;;;;;2.29;100.00;100002.94;4190837;28;20131;-74
2023/02/11 07:02:56;;;;;;;32.80;18.05;;;;;;;2.36;100.00;100021.75;4190224;28;20488;-74
2023/02/11 07:04:56;;;;;;;36.65;18.65;;;;;;;2.34;100.00;100008.38;4190687;28;20090;-75
2023/02/11 07:06:56;;;;;;;37.65;18.70;;;;;;;2.31;100.00;100014.38;4191087;28;20041;-75
2023/02/11 07:08:57;;;;;;;34.90;18.45;;;;;;;2.30;100.00;100020.97;4189753;28;20048;-74
2023/02/11 07:10:57;;;;;;;34.00;18.23;;;;;;;2.30;100.00;100014.69;4190092;28;20428;-75
2023/02/11 07:12:57;;;;;;;37.30;19.45;;;;;;;2.31;100.00;100014.38;4190321;28;20137;-74
2023/02/11 07:14:57;;;;;;;34.63;17.30;;;;;;;2.33;100.00;100012.22;4191573;28;20044;-75
2023/02/11 07:16:58;;;;;;;33.78;18.40;;;;;;;2.30;100.00;100003.75;4190954;28;20040;-74
2023/02/11 07:18:58;;;;;;;33.45;17.30;;;;;;;2.29;100.00;100007.59;4191321;28;20353;-74
2023/02/11 07:20:59;;;;;;;34.15;17.45;;;;;;;2.31;100.00;100003.47;4189783;28;20067;-74
2023/02/11 07:22:59;;;;;;;34.92;18.63;;;;;;;2.33;100.00;100011.41;4188586;28;20380;-74
2023/02/11 07:24:59;;;;;;;34.53;18.05;;;;;;;2.34;100.00;100013.84;4190263;28;20125;-74
2023/02/11 07:27:00;;;;;;;36.15;18.85;;;;;;;2.34;100.00;100022.03;4190383;28;20492;-74
2023/02/11 07:29:00;;;;;;;34.80;18.88;;;;;;;2.33;100.00;100016.84;4190004;28;20216;-74
2023/02/11 07:31:33;;;;;;;33.55;18.08;;;;;;;2.33;100.00;100033.25;4189649;28;20063;-74
2023/02/11 07:33:44;;;;;;;36.70;18.00;;;;;;;2.29;100.00;100038.44;4156209;28;20097;-74
2023/02/11 07:35:45;;;;;;;33.75;17.30;;;;;;;2.33;100.00;100035.97;4188869;28;20052;-74
2023/02/11 07:37:46;;;;;;;36.45;18.83;;;;;;;2.32;100.00;100040.63;4189653;28;20044;-74
2023/02/11 07:39:46;;;;;;;36.65;18.90;;;;;;;2.35;100.00;100041.97;4192008;28;20103;-74
2023/02/11 07:41:48;;;;;;;32.05;18.05;;;;;;;2.31;100.00;100033.50;4191464;28;20044;-75
2023/02/11 07:43:49;;;;;;;42.15;20.40;;;;;;;2.35;100.00;100040.03;4188820;28;20489;-74
2023/02/11 07:45:49;;;;;;;36.85;18.60;;;;;;;2.37;100.00;100037.84;4190183;28;20067;-74
2023/02/11 07:47:49;;;;;;;44.65;22.40;;;;;;;2.34;100.00;100043.06;4190614;28;20127;-74
2023/02/11 07:49:50;;;;;;;40.08;19.83;;;;;;;2.32;100.00;100031.59;4190808;28;20033;-74
2023/02/11 07:51:50;;;;;;;37.40;19.13;;;;;;;2.43;100.00;100047.63;4190690;28;20426;-74
2023/02/11 07:53:52;;;;;;;36.67;19.67;;;;;;;2.43;100.00;100044.91;4194485;28;20520;-74
2023/02/11 07:55:52;;;;;;;34.92;18.23;;;;;;;2.50;100.00;100041.84;4190151;28;20481;-74
2023/02/11 07:57:52;;;;;;;36.75;18.45;;;;;;;2.52;100.00;100039.63;4190369;28;20045;-74
2023/02/11 07:59:53;;;;;;;41.03;18.42;;;;;;;2.50;100.00;100041.84;4190522;28;20040;-75
2023/02/11 08:01:53;;;;;;;38.08;17.75;;;;;;;2.46;100.00;100047.03;4192188;28;20500;-74
2023/02/11 08:03:56;;;;;;;36.88;19.95;;;;;;;2.43;100.00;100055.00;4192036;28;20102;-74
2023/02/11 08:05:56;;;;;;;32.92;18.05;;;;;;;2.35;100.00;100053.69;4193915;28;20032;-74
2023/02/11 08:07:56;;;;;;;34.47;18.55;;;;;;;2.39;100.00;100051.19;4193846;28;20044;-74
2023/02/11 08:09:57;;;;;;;39.67;19.15;;;;;;;2.39;100.00;100052.00;4193396;28;20124;-75
2023/02/11 08:11:57;;;;;;;35.40;18.63;;;;;;;2.43;100.00;100063.22;4192772;28;20473;-74
2023/02/11 08:13:57;;;;;;;42.10;20.20;;;;;;;2.35;100.00;100056.44;4191696;28;20040;-74
2023/02/11 08:15:58;;;;;;;36.75;18.95;;;;;;;2.34;100.00;100049.34;4197577;28;20138;-74
2023/02/11 08:17:58;;;;;;;37.92;18.60;;;;;;;2.38;100.00;100055.03;4192893;28;20045;-74
2023/02/11 08:19:58;;;;;;;34.83;18.05;;;;;;;2.37;100.00;100062.41;4197254;28;20463;-75
2023/02/11 08:22:00;;;;;;;41.38;18.88;;;;;;;2.37;100.00;100059.69;4191920;28;20102;-75
2023/02/11 08:24:02;;;;;;;31.73;17.73;;;;;;;2.42;100.00;100058.84;4192455;28;20531;-74
2023/02/11 08:26:07;;;;;;;36.53;18.42;;;;;;;2.42;100.00;100062.38;4191730;28;20042;-74
2023/02/11 08:28:08;;;;;;;38.15;18.63;;;;;;;2.44;100.00;100056.63;4193126;28;20511;-75
2023/02/11 08:30:09;;;;;;;37.00;18.30;;;;;;;2.49;100.00;100054.69;4193195;28;20306;-74
2023/02/11 08:32:09;;;;;;;38.45;18.75;;;;;;;2.45;100.00;100059.06;4192681;28;20040;-75
2023/02/11 08:34:13;;;;;;;34.63;18.10;;;;;;;2.47;100.00;100064.25;4192506;28;20025;-74
2023/02/11 08:36:16;;;;;;;34.05;18.98;;;;;;;2.52;100.00;100048.63;4189912;28;20457;-74
2023/02/11 08:38:16;;;;;;;43.50;18.73;;;;;;;2.49;100.00;100053.88;4189069;28;20295;-75
2023/02/11 08:40:37;;;;;;;36.88;19.00;;;;;;;2.56;100.00;100062.53;4196509;28;20036;-75
2023/02/11 08:42:37;;;;;;;32.78;18.30;;;;;;;2.53;100.00;100063.94;4192897;28;20068;-74
2023/02/11 08:44:37;;;;;;;35.25;17.73;;;;;;;2.50;100.00;100061.78;4192417;28;20112;-74
2023/02/11 08:46:38;;;;;;;30.85;17.25;;;;;;;2.48;100.00;100066.72;4175612;28;20040;-74
2023/02/11 08:48:38;;;;;;;32.72;18.98;;;;;;;2.49;100.00;100065.63;4203272;28;20051;-74
2023/02/11 08:50:38;;;;;;;35.80;19.60;;;;;;;2.45;100.00;100061.00;4190839;28;20028;-74
2023/02/11 08:52:39;;;;;;;35.95;18.55;;;;;;;2.40;100.00;100055.56;4191598;28;20480;-74
2023/02/11 08:54:39;;;;;;;40.35;18.92;;;;;;;2.36;100.00;100040.84;4192312;28;20036;-74
2023/02/11 08:56:39;;;;;;;34.50;18.13;;;;;;;2.44;100.00;100040.25;4190868;28;20044;-74
2023/02/11 08:58:41;;;;;;;38.45;19.73;;;;;;;2.44;100.00;100042.97;4193297;28;20186;-74
2023/02/11 09:00:44;;;;;;;35.45;17.80;;;;;;;2.41;100.00;100040.81;4194423;28;20033;-75
2023/02/11 09:02:44;;;;;;;34.67;18.92;;;;;;;2.47;100.00;100026.00;4197756;28;20472;-74
2023/02/11 09:04:44;;;;;;;34.90;18.65;;;;;;;2.56;100.00;100027.00;4192248;28;20044;-74
2023/02/11 09:06:45;;;;;;;35.65;18.35;;;;;;;2.56;100.00;100024.28;4192309;28;20064;-74
2023/02/11 09:08:50;;;;;;;39.53;20.05;;;;;;;2.66;100.00;100026.13;4194229;28;20032;-74
2023/02/11 09:10:50;;;;;;;34.22;18.52;;;;;;;2.69;100.00;100036.47;4192354;28;20527;-75
2023/02/11 09:12:51;;;;;;;32.28;18.50;;;;;;;2.79;100.00;100030.91;4191933;28;20041;-74
2023/02/11 09:14:51;;;;;;;37.30;17.58;;;;;;;2.88;100.00;100031.88;4194273;28;20394;-74
2023/02/11 09:16:52;;;;;;;35.20;18.58;;;;;;;2.97;100.00;100023.88;4202062;28;20086;-74
2023/02/11 09:18:54;;;;;;;32.58;17.92;;;;;;;3.08;100.00;100025.41;4191442;28;20036;-75
2023/02/11 09:21:06;;;;;;;32.45;17.02;;;;;;;3.23;100.00;100033.44;4192698;28;20051;-74
2023/02/11 09:23:06;;;;;;;35.78;18.05;;;;;;;3.28;100.00;100032.53;4195895;28;20479;-74
2023/02/11 09:25:07;;;;;;;33.60;17.40;;;;;;;3.21;100.00;100037.56;4192075;28;20049;-74
2023/02/11 09:27:07;;;;;;;33.13;17.52;;;;;;;3.20;100.00;100041.41;4191080;28;20098;-74